Serenade Of The Seas — C6FV8 — position and weather

sailwx.info

Track history (hours):
 
Tides and Currents Weather Stations Pressure Air Temp Water Temp Dewpoint Dewpoint Depression Visibility Wind Speed Wind Dir Waves Ship Positions

Serenade Of The Seas

Operator: Royal Caribbean Cruises Ltd

Last reported at 2016-May-05 18:31 UTC. Time now 2016-May-05 21:56 UTC.
Position N 36°45' W 029°54'.

Length 294 m; draft 8.6 m.

Type: Ship. MMSI: 311492000.

Date/timePositionNaut miles runAvg speedWind from/ knotsBaromVisibWave heightAir tempDewpointWater temp
2016-May-05 18:31N 36°45' W 029°54'8817.1
2016-May-05 13:24N 36°22' W 031°39'2216.9
2016-May-05 12:04N 36°17' W 032°06'  
2016-Apr-29 23:30N 26°11' W 079°39'2121.8
2016-Apr-29 22:33N 26°06' W 080°01'6 5.4
2016-Apr-29 21:31N 26°05' W 080°07'0 0.0
2016-Apr-29 20:31N 26°05' W 080°07'0 0.0
2016-Apr-29 19:31N 26°05' W 080°07'0 0.0
2016-Apr-29 18:31N 26°05' W 080°07'0 0.0
2016-Apr-29 17:31N 26°05' W 080°07'0 0.0
2016-Apr-29 16:31N 26°05' W 080°07'0 0.0
2016-Apr-29 15:22N 26°05' W 080°07'0 0.0
2016-Apr-29 14:22N 26°05' W 080°07'0 0.0
2016-Apr-29 13:29N 26°05' W 080°07'8 9.2
2016-Apr-29 12:33N 26°06' W 079°58'2222.2
2016-Apr-29 11:34N 26°09' W 079°33'87122.9
2016-Apr-27 21:33N 18°33' W 066°11'4 4.3
2016-Apr-27 20:33N 18°30' W 066°08'152 8.4
2016-Apr-27 02:32N 18°13' W 063°29'1818.2
2016-Apr-27 01:32N 18°01' W 063°14'6318.4
2016-Apr-26 22:06N 17°26' W 062°19'1018.1
2016-Apr-26 21:33N 17°20' W 062°11'1817.8
2016-Apr-26 20:33N 17°10' W 061°56'5 5.2
2016-Apr-26 19:33N 17°07' W 061°51'0 0.0
2016-Apr-26 18:33N 17°07' W 061°51'0 0.0
2016-Apr-26 17:33N 17°07' W 061°51'0 0.0
2016-Apr-26 16:33N 17°07' W 061°51'0 0.0
2016-Apr-26 15:33N 17°07' W 061°51'0 0.0
2016-Apr-26 14:33N 17°07' W 061°51'0 0.0
2016-Apr-26 13:33N 17°07' W 061°51'0 0.0
2016-Apr-26 12:33N 17°07' W 061°51'0 0.0
2016-Apr-26 11:33N 17°07' W 061°51'0 0.2
2016-Apr-26 10:34N 17°07' W 061°51'9 9.3
2016-Apr-26 09:34N 17°11' W 062°00'1211.7
2016-Apr-26 08:33N 16°60' W 062°04'1615.5
2016-Apr-26 07:33N 16°44' W 062°01'1615.9
2016-Apr-26 06:34N 16°29' W 061°58'1615.8
2016-Apr-26 05:34N 16°13' W 061°55'1615.5
2016-Apr-26 04:30N 15°57' W 061°52'2115.5
2016-Apr-26 03:08N 15°36' W 061°47'1215.3
2016-Apr-26 02:23N 15°25' W 061°44'1315.5
2016-Apr-26 01:33N 15°13' W 061°41'1715.4
2016-Apr-26 00:26N 14°57' W 061°34'  
Track history (hours):
 
Tides and Currents Weather Stations Pressure Air Temp Water Temp Dewpoint Dewpoint Depression Visibility Wind Speed Wind Dir Waves Ship Positions

Serenade Of The Seas

Operator: Royal Caribbean Cruises Ltd

Last reported at 2016-May-05 18:31 UTC. Time now 2016-May-05 21:56 UTC.
Position N 36°45' W 029°54'.

Length 294 m; draft 8.6 m.

Type: Ship. MMSI: 311492000.

Date/timePositionNaut miles runAvg speedWind from/ knotsBaromVisibWave heightAir tempDewpointWater temp
2016-May-05 18:31N 36°45' W 029°54'8817.1
2016-May-05 13:24N 36°22' W 031°39'2216.9
2016-May-05 12:04N 36°17' W 032°06'  
2016-Apr-29 23:30N 26°11' W 079°39'2121.8
2016-Apr-29 22:33N 26°06' W 080°01'6 5.4
2016-Apr-29 21:31N 26°05' W 080°07'0 0.0
2016-Apr-29 20:31N 26°05' W 080°07'0 0.0
2016-Apr-29 19:31N 26°05' W 080°07'0 0.0
2016-Apr-29 18:31N 26°05' W 080°07'0 0.0
2016-Apr-29 17:31N 26°05' W 080°07'0 0.0
2016-Apr-29 16:31N 26°05' W 080°07'0 0.0
2016-Apr-29 15:22N 26°05' W 080°07'0 0.0
2016-Apr-29 14:22N 26°05' W 080°07'0 0.0
2016-Apr-29 13:29N 26°05' W 080°07'8 9.2
2016-Apr-29 12:33N 26°06' W 079°58'2222.2
2016-Apr-29 11:34N 26°09' W 079°33'87122.9
2016-Apr-27 21:33N 18°33' W 066°11'4 4.3
2016-Apr-27 20:33N 18°30' W 066°08'152 8.4
2016-Apr-27 02:32N 18°13' W 063°29'1818.2
2016-Apr-27 01:32N 18°01' W 063°14'6318.4
2016-Apr-26 22:06N 17°26' W 062°19'1018.1
2016-Apr-26 21:33N 17°20' W 062°11'1817.8
2016-Apr-26 20:33N 17°10' W 061°56'5 5.2
2016-Apr-26 19:33N 17°07' W 061°51'0 0.0
2016-Apr-26 18:33N 17°07' W 061°51'0 0.0
2016-Apr-26 17:33N 17°07' W 061°51'0 0.0
2016-Apr-26 16:33N 17°07' W 061°51'0 0.0
2016-Apr-26 15:33N 17°07' W 061°51'0 0.0
2016-Apr-26 14:33N 17°07' W 061°51'0 0.0
2016-Apr-26 13:33N 17°07' W 061°51'0 0.0
2016-Apr-26 12:33N 17°07' W 061°51'0 0.0
2016-Apr-26 11:33N 17°07' W 061°51'0 0.2
2016-Apr-26 10:34N 17°07' W 061°51'9 9.3
2016-Apr-26 09:34N 17°11' W 062°00'1211.7
2016-Apr-26 08:33N 16°60' W 062°04'1615.5
2016-Apr-26 07:33N 16°44' W 062°01'1615.9
2016-Apr-26 06:34N 16°29' W 061°58'1615.8
2016-Apr-26 05:34N 16°13' W 061°55'1615.5
2016-Apr-26 04:30N 15°57' W 061°52'2115.5
2016-Apr-26 03:08N 15°36' W 061°47'1215.3
2016-Apr-26 02:23N 15°25' W 061°44'1315.5
2016-Apr-26 01:33N 15°13' W 061°41'1715.4
2016-Apr-26 00:26N 14°57' W 061°34'  

Dump ship's entire track history